createdAt,value
2024-02-14T00:00:17.720Z,81.875000
2024-02-14T00:05:17.376Z,80.970833
2024-02-14T00:10:17.401Z,80.500000
2024-02-14T00:15:17.494Z,80.025000
2024-02-14T00:20:17.489Z,79.683333
2024-02-14T00:25:20.319Z,79.225000
2024-02-14T00:30:17.781Z,78.725000
2024-02-14T00:35:17.709Z,78.284000
2024-02-14T00:40:17.501Z,77.875000
2024-02-14T00:45:17.750Z,77.683333
2024-02-14T00:50:17.992Z,77.496000
2024-02-14T00:55:17.804Z,77.366667
2024-02-14T01:00:17.726Z,77.050000
2024-02-14T01:05:17.814Z,76.788462
2024-02-14T01:10:17.440Z,76.629167
2024-02-14T01:15:17.241Z,76.475000
2024-02-14T01:20:17.836Z,76.275000
2024-02-14T01:25:17.790Z,75.900000
2024-02-14T01:30:17.381Z,75.966667
2024-02-14T01:35:17.569Z,76.444000
2024-02-14T01:40:18.123Z,76.872000
2024-02-14T01:45:17.218Z,77.137500
2024-02-14T01:50:17.514Z,77.187500
2024-02-14T01:55:17.685Z,77.232000
2024-02-14T02:00:17.480Z,77.533333
2024-02-14T02:05:17.637Z,77.908000
2024-02-14T02:10:18.005Z,78.158333
2024-02-14T02:15:17.727Z,78.487500
2024-02-14T02:20:17.897Z,78.828000
2024-02-14T02:25:17.731Z,78.900000
2024-02-14T02:30:18.323Z,78.808000
2024-02-14T02:35:17.750Z,78.841667
2024-02-14T02:40:17.807Z,78.166667
2024-02-14T02:45:17.387Z,77.625000
2024-02-14T02:50:17.393Z,77.570833
2024-02-14T02:55:17.203Z,77.380000
2024-02-14T03:00:17.491Z,77.320833
2024-02-14T03:05:17.303Z,77.512500
2024-02-14T03:10:17.937Z,77.633333
2024-02-14T03:15:17.858Z,77.500000
2024-02-14T03:20:18.701Z,77.362500
2024-02-14T03:25:17.666Z,76.966667
2024-02-14T03:30:17.599Z,77.075000
2024-02-14T03:35:17.415Z,77.124000
2024-02-14T03:40:17.282Z,77.287500
2024-02-14T03:45:17.311Z,77.466667
2024-02-14T03:50:17.306Z,77.445833
2024-02-14T03:55:17.431Z,77.725000
2024-02-14T04:00:17.759Z,78.229167
2024-02-14T04:05:17.457Z,78.558333
2024-02-14T04:10:17.418Z,78.137500
2024-02-14T04:15:17.426Z,77.929167
2024-02-14T04:20:17.827Z,77.832000
2024-02-14T04:25:17.277Z,78.308333
2024-02-14T04:30:17.365Z,79.164000
2024-02-14T04:35:17.486Z,79.604167
2024-02-14T04:40:17.734Z,79.308000
2024-02-14T04:45:17.766Z,78.764000
2024-02-14T04:50:17.968Z,78.212500
2024-02-14T04:55:17.526Z,77.916667
2024-02-14T05:00:17.895Z,77.612500
2024-02-14T05:05:17.374Z,77.662500
2024-02-14T05:10:17.466Z,77.320000
2024-02-14T05:15:17.969Z,76.841667
2024-02-14T05:20:17.668Z,76.100000
2024-02-14T05:25:17.383Z,75.404167
2024-02-14T05:30:17.307Z,74.950000
2024-02-14T05:35:17.605Z,74.504167
2024-02-14T05:40:17.317Z,74.437500
2024-02-14T05:45:17.260Z,74.358333
2024-02-14T05:50:17.198Z,74.412500
2024-02-14T05:55:17.684Z,74.440000
2024-02-14T06:00:28.026Z,73.824000
2024-02-14T06:05:17.409Z,73.300000
2024-02-14T06:10:17.726Z,73.020000
2024-02-14T06:15:17.357Z,72.616667
2024-02-14T06:20:17.616Z,72.052000
2024-02-14T06:25:18.172Z,71.420833
2024-02-14T06:30:17.995Z,70.891667
2024-02-14T06:35:17.832Z,70.516667
2024-02-14T06:40:17.746Z,70.344000
2024-02-14T06:45:17.966Z,70.508333
2024-02-14T06:50:17.390Z,70.766667
2024-02-14T06:55:17.497Z,70.791667
2024-02-14T07:00:17.411Z,70.887500
2024-02-14T07:05:17.211Z,70.536000
2024-02-14T07:10:17.180Z,70.416667
2024-02-14T07:15:17.301Z,70.437500
2024-02-14T07:20:17.784Z,70.370833
2024-02-14T07:25:17.173Z,70.229167
2024-02-14T07:30:17.171Z,70.068000
2024-02-14T07:35:17.452Z,70.045833
2024-02-14T07:40:18.662Z,69.945833
2024-02-14T07:45:17.236Z,69.600000
2024-02-14T07:50:17.335Z,69.708000
2024-02-14T07:55:17.230Z,69.220000
2024-02-14T08:00:17.536Z,68.987500
2024-02-14T08:05:17.341Z,68.804000
2024-02-14T08:10:17.180Z,68.729167
2024-02-14T08:15:17.210Z,68.904167
2024-02-14T08:20:17.566Z,69.266667
2024-02-14T08:25:17.313Z,69.758333
2024-02-14T08:30:17.313Z,69.879167
2024-02-14T08:35:17.502Z,69.900000
2024-02-14T08:40:17.648Z,69.870833
2024-02-14T08:45:17.444Z,70.016000
2024-02-14T08:50:17.275Z,70.236000
2024-02-14T08:55:17.511Z,70.512500
2024-02-14T09:00:17.850Z,70.033333
2024-02-14T09:05:17.337Z,69.895833
2024-02-14T09:10:17.339Z,70.376000
2024-02-14T09:15:17.233Z,70.583333
2024-02-14T09:20:17.652Z,71.308333
2024-02-14T09:25:17.514Z,71.066667
2024-02-14T09:30:24.865Z,71.032000
2024-02-14T09:35:17.242Z,70.933333
2024-02-14T09:40:17.853Z,70.840000
2024-02-14T09:45:21.464Z,71.291667
2024-02-14T09:50:18.110Z,71.495833
2024-02-14T09:55:17.998Z,71.616667
2024-02-14T10:00:17.958Z,71.758333
2024-02-14T10:05:18.014Z,72.000000
2024-02-14T10:10:17.786Z,72.366667
2024-02-14T10:15:18.175Z,73.062500
2024-02-14T10:20:17.274Z,73.833333
2024-02-14T10:25:17.155Z,74.632000
2024-02-14T10:30:17.272Z,74.844000
2024-02-14T10:35:17.213Z,74.383333
2024-02-14T10:40:17.389Z,74.066667
2024-02-14T10:45:17.175Z,73.712500
2024-02-14T10:50:17.370Z,73.276000
2024-02-14T10:55:17.818Z,72.791667
2024-02-14T11:00:17.409Z,72.537500
2024-02-14T11:05:17.365Z,71.895833
2024-02-14T11:10:17.736Z,71.516667
2024-02-14T11:15:17.753Z,71.150000
2024-02-14T11:20:17.771Z,71.308333
2024-02-14T11:25:17.804Z,71.996000
2024-02-14T11:30:17.182Z,72.541667
2024-02-14T11:35:17.377Z,72.754167
2024-02-14T11:40:17.749Z,72.794444
2024-02-14T11:45:17.206Z,72.866667
2024-02-14T11:50:17.570Z,72.887500
2024-02-14T11:55:17.456Z,72.728000
2024-02-14T12:00:17.562Z,73.237500
2024-02-14T12:05:17.133Z,73.079167
2024-02-14T12:10:17.447Z,73.264000
2024-02-14T12:15:17.675Z,72.592000
2024-02-14T12:20:17.378Z,71.780000
2024-02-14T12:25:17.132Z,72.432000
2024-02-14T12:30:17.674Z,72.895833
2024-02-14T12:35:17.126Z,73.284000
2024-02-14T12:40:17.169Z,73.360000
2024-02-14T12:45:17.494Z,73.200000
2024-02-14T12:50:17.225Z,72.575000
2024-02-14T12:55:17.631Z,72.308000
2024-02-14T13:00:17.608Z,73.116667
2024-02-14T13:05:17.389Z,73.520000
2024-02-14T13:10:17.456Z,72.372000
2024-02-14T13:15:17.583Z,70.972000
2024-02-14T13:20:17.616Z,71.760000
2024-02-14T13:25:17.222Z,71.483333
2024-02-14T13:30:17.908Z,72.100000
2024-02-14T13:35:17.517Z,72.908333
2024-02-14T13:40:18.125Z,72.079167
2024-02-14T13:45:17.274Z,72.958333
2024-02-14T13:50:17.250Z,73.180000
2024-02-14T13:55:17.282Z,73.116000
2024-02-14T14:00:17.211Z,72.933333
2024-02-14T14:05:18.469Z,73.779167
2024-02-14T14:10:17.062Z,73.995833
2024-02-14T14:15:17.720Z,74.025000
2024-02-14T14:20:17.438Z,74.316000
2024-02-14T14:25:17.576Z,74.866667
2024-02-14T14:30:17.602Z,74.325000
2024-02-14T14:35:17.230Z,73.916667
2024-02-14T14:40:17.181Z,73.884000
2024-02-14T14:45:17.105Z,74.687500
2024-02-14T14:50:17.254Z,75.083333
2024-02-14T14:55:17.270Z,75.350000
2024-02-14T15:00:21.086Z,75.762500
2024-02-14T15:05:17.700Z,75.775000
2024-02-14T15:10:18.207Z,75.516667
2024-02-14T15:15:17.954Z,75.750000
2024-02-14T15:20:17.827Z,75.737500
2024-02-14T15:25:17.962Z,76.020833
2024-02-14T15:30:20.175Z,76.379167
2024-02-14T15:35:19.198Z,76.825000
2024-02-14T15:40:17.472Z,76.795833
2024-02-14T15:45:18.302Z,77.016000
2024-02-14T15:50:17.548Z,77.129167
2024-02-14T15:55:17.069Z,77.483333
2024-02-14T16:00:17.053Z,77.983333
2024-02-14T16:05:17.074Z,78.804167
2024-02-14T16:10:17.111Z,80.164000
2024-02-14T16:15:17.337Z,80.600000
2024-02-14T16:20:20.110Z,81.116667
2024-02-14T16:25:17.263Z,81.079167
2024-02-14T16:30:17.474Z,80.912000
2024-02-14T16:35:17.383Z,81.016667
2024-02-14T16:40:17.138Z,81.000000
2024-02-14T16:45:19.344Z,80.888000
2024-02-14T16:50:17.230Z,80.850000
2024-02-14T16:55:17.940Z,80.816000
2024-02-14T17:00:17.634Z,80.650000
2024-02-14T17:05:17.879Z,80.816000
2024-02-14T17:10:17.468Z,80.612000
2024-02-14T17:15:17.690Z,80.387500
2024-02-14T17:20:17.616Z,80.172000
2024-02-14T17:25:17.521Z,79.983333
2024-02-14T17:30:17.458Z,79.691667
2024-02-14T17:35:17.727Z,79.500000
2024-02-14T17:40:17.181Z,79.380000
2024-02-14T17:45:17.049Z,79.336000
2024-02-14T17:50:17.033Z,79.262500
2024-02-14T17:55:18.596Z,79.256000
2024-02-14T18:00:21.446Z,79.466667
2024-02-14T18:05:20.143Z,80.166667
2024-02-14T18:10:17.742Z,80.660000
2024-02-14T18:15:17.820Z,81.004167
2024-02-14T18:20:17.513Z,80.641667
2024-02-14T18:25:17.777Z,80.254167
2024-02-14T18:30:17.103Z,79.975000
2024-02-14T18:35:17.067Z,79.900000
2024-02-14T18:40:17.252Z,79.900000
2024-02-14T18:45:17.132Z,80.016667
2024-02-14T18:50:17.256Z,80.016667
2024-02-14T18:55:17.175Z,79.700000
2024-02-14T19:00:17.870Z,79.458333
2024-02-14T19:05:17.531Z,79.091667
2024-02-14T19:10:17.818Z,79.050000
2024-02-14T19:15:17.530Z,78.958333
2024-02-14T19:20:17.448Z,78.836000
2024-02-14T19:25:17.551Z,78.775000
2024-02-14T19:30:17.277Z,78.700000
2024-02-14T19:35:17.485Z,78.666667
2024-02-14T19:40:17.137Z,78.884000
2024-02-14T19:45:17.160Z,78.796000
2024-02-14T19:50:17.527Z,78.868000
2024-02-14T19:55:16.918Z,78.637500
2024-02-14T20:00:17.102Z,78.550000
2024-02-14T20:05:17.167Z,78.515385
2024-02-14T20:10:17.091Z,78.462500
2024-02-14T20:15:17.126Z,78.316667
2024-02-14T20:20:17.729Z,78.441667
2024-02-14T20:25:16.919Z,78.966667
2024-02-14T20:30:17.510Z,79.062500
2024-02-14T20:35:17.538Z,79.216667
2024-02-14T20:40:17.160Z,79.300000
2024-02-14T20:45:17.046Z,79.262500
2024-02-14T20:50:17.342Z,79.300000
2024-02-14T20:55:17.435Z,79.508333
2024-02-14T21:00:17.835Z,79.654167
2024-02-14T21:05:17.429Z,79.612000
2024-02-14T21:10:19.878Z,79.948000
2024-02-14T21:15:19.085Z,80.895833
2024-02-14T21:20:17.189Z,82.500000
2024-02-14T21:25:17.902Z,83.832000
2024-02-14T21:30:17.772Z,84.454167
2024-02-14T21:35:17.447Z,84.958333
2024-02-14T21:40:17.127Z,84.950000
2024-02-14T21:45:17.645Z,84.725000
2024-02-14T21:50:17.954Z,84.707692
2024-02-14T21:55:17.929Z,84.925000
2024-02-14T22:00:17.604Z,85.233333
2024-02-14T22:05:18.137Z,85.345833
2024-02-14T22:10:17.350Z,85.429167
2024-02-14T22:15:17.016Z,85.500000
2024-02-14T22:20:17.064Z,85.495833
2024-02-14T22:25:17.458Z,85.291667
2024-02-14T22:30:17.400Z,85.112500
2024-02-14T22:35:17.392Z,85.100000
2024-02-14T22:40:17.261Z,85.145833
2024-02-14T22:45:17.376Z,85.479167
2024-02-14T22:50:17.059Z,85.704000
2024-02-14T22:55:16.949Z,85.762500
2024-02-14T23:00:18.346Z,85.776000
2024-02-14T23:05:17.173Z,85.700000
2024-02-14T23:10:17.042Z,85.700000
2024-02-14T23:15:17.249Z,85.732000
2024-02-14T23:20:17.573Z,85.880000
2024-02-14T23:25:17.277Z,85.824000
2024-02-14T23:30:17.162Z,85.800000
2024-02-14T23:35:17.299Z,85.772000
2024-02-14T23:40:17.492Z,85.600000
2024-02-14T23:45:18.415Z,85.583333
2024-02-14T23:50:17.224Z,85.584000
2024-02-14T23:55:17.172Z,85.779167
